sensor_id;sensor_type;location;lat;lon;timestamp;P1;durP1;ratioP1;P2;durP2;ratioP2
11817;SDS011;5966;52.402;5.322;2022-09-19T00:02:04;6.67;;;1.87;;
11817;SDS011;5966;52.402;5.322;2022-09-19T00:04:32;8.30;;;1.73;;
11817;SDS011;5966;52.402;5.322;2022-09-19T00:07:23;9.27;;;2.10;;
11817;SDS011;5966;52.402;5.322;2022-09-19T00:09:53;7.50;;;1.53;;
11817;SDS011;5966;52.402;5.322;2022-09-19T00:12:21;6.03;;;1.90;;
11817;SDS011;5966;52.402;5.322;2022-09-19T00:14:51;6.73;;;1.87;;
11817;SDS011;5966;52.402;5.322;2022-09-19T00:17:25;7.73;;;1.83;;
11817;SDS011;5966;52.402;5.322;2022-09-19T00:19:53;10.60;;;1.70;;
11817;SDS011;5966;52.402;5.322;2022-09-19T00:22:21;7.90;;;1.80;;
11817;SDS011;5966;52.402;5.322;2022-09-19T00:24:51;6.47;;;1.50;;
11817;SDS011;5966;52.402;5.322;2022-09-19T00:27:19;11.33;;;2.50;;
11817;SDS011;5966;52.402;5.322;2022-09-19T00:29:49;8.17;;;1.87;;
11817;SDS011;5966;52.402;5.322;2022-09-19T00:32:17;6.90;;;2.17;;
11817;SDS011;5966;52.402;5.322;2022-09-19T00:34:47;9.37;;;1.60;;
11817;SDS011;5966;52.402;5.322;2022-09-19T00:37:16;6.30;;;1.30;;
11817;SDS011;5966;52.402;5.322;2022-09-19T00:39:47;7.13;;;1.37;;
11817;SDS011;5966;52.402;5.322;2022-09-19T00:42:21;10.83;;;1.60;;
11817;SDS011;5966;52.402;5.322;2022-09-19T00:44:54;7.70;;;1.63;;
11817;SDS011;5966;52.402;5.322;2022-09-19T00:47:26;6.13;;;1.93;;
11817;SDS011;5966;52.402;5.322;2022-09-19T00:50:07;8.23;;;1.70;;
11817;SDS011;5966;52.402;5.322;2022-09-19T00:52:41;9.20;;;1.87;;
11817;SDS011;5966;52.402;5.322;2022-09-19T00:55:15;7.23;;;1.63;;
11817;SDS011;5966;52.402;5.322;2022-09-19T00:57:55;7.10;;;1.67;;
11817;SDS011;5966;52.402;5.322;2022-09-19T01:00:48;9.37;;;2.10;;
11817;SDS011;5966;52.402;5.322;2022-09-19T01:03:19;8.60;;;2.10;;
11817;SDS011;5966;52.402;5.322;2022-09-19T01:05:54;7.87;;;1.40;;
11817;SDS011;5966;52.402;5.322;2022-09-19T01:08:46;6.77;;;1.67;;
11817;SDS011;5966;52.402;5.322;2022-09-19T01:11:40;13.53;;;2.30;;
11817;SDS011;5966;52.402;5.322;2022-09-19T01:14:39;9.60;;;2.23;;
11817;SDS011;5966;52.402;5.322;2022-09-19T01:17:22;10.50;;;1.90;;
11817;SDS011;5966;52.402;5.322;2022-09-19T01:23:02;6.73;;;2.03;;
11817;SDS011;5966;52.402;5.322;2022-09-19T01:25:44;8.90;;;1.93;;
11817;SDS011;5966;52.402;5.322;2022-09-19T01:28:22;6.60;;;1.57;;
11817;SDS011;5966;52.402;5.322;2022-09-19T01:30:54;6.87;;;1.63;;
11817;SDS011;5966;52.402;5.322;2022-09-19T01:33:39;5.17;;;1.63;;
11817;SDS011;5966;52.402;5.322;2022-09-19T01:36:08;8.30;;;1.60;;
11817;SDS011;5966;52.402;5.322;2022-09-19T01:38:43;6.97;;;2.00;;
11817;SDS011;5966;52.402;5.322;2022-09-19T01:41:17;5.80;;;1.83;;
11817;SDS011;5966;52.402;5.322;2022-09-19T01:43:54;6.97;;;1.80;;
11817;SDS011;5966;52.402;5.322;2022-09-19T01:46:26;4.97;;;1.93;;
11817;SDS011;5966;52.402;5.322;2022-09-19T01:49:02;7.10;;;1.47;;
11817;SDS011;5966;52.402;5.322;2022-09-19T01:51:47;6.60;;;1.67;;
11817;SDS011;5966;52.402;5.322;2022-09-19T01:54:26;10.87;;;1.93;;
11817;SDS011;5966;52.402;5.322;2022-09-19T01:57:07;7.20;;;1.83;;
11817;SDS011;5966;52.402;5.322;2022-09-19T01:59:45;6.83;;;1.90;;
11817;SDS011;5966;52.402;5.322;2022-09-19T02:02:26;6.57;;;1.40;;
11817;SDS011;5966;52.402;5.322;2022-09-19T02:05:03;7.00;;;2.00;;
11817;SDS011;5966;52.402;5.322;2022-09-19T02:07:39;6.43;;;1.60;;
11817;SDS011;5966;52.402;5.322;2022-09-19T02:10:14;9.53;;;1.90;;
11817;SDS011;5966;52.402;5.322;2022-09-19T02:12:49;9.20;;;1.93;;
11817;SDS011;5966;52.402;5.322;2022-09-19T02:15:30;7.13;;;1.73;;
11817;SDS011;5966;52.402;5.322;2022-09-19T02:18:05;7.73;;;1.70;;
11817;SDS011;5966;52.402;5.322;2022-09-19T02:20:39;6.93;;;1.83;;
11817;SDS011;5966;52.402;5.322;2022-09-19T02:23:12;9.70;;;1.93;;
11817;SDS011;5966;52.402;5.322;2022-09-19T02:25:48;7.33;;;1.73;;
11817;SDS011;5966;52.402;5.322;2022-09-19T02:28:24;7.00;;;1.73;;
11817;SDS011;5966;52.402;5.322;2022-09-19T02:30:59;9.03;;;1.80;;
11817;SDS011;5966;52.402;5.322;2022-09-19T02:33:27;4.87;;;1.67;;
11817;SDS011;5966;52.402;5.322;2022-09-19T02:35:57;12.47;;;2.13;;
11817;SDS011;5966;52.402;5.322;2022-09-19T02:38:34;11.10;;;1.80;;
11817;SDS011;5966;52.402;5.322;2022-09-19T02:41:09;7.33;;;1.60;;
11817;SDS011;5966;52.402;5.322;2022-09-19T02:43:46;7.83;;;2.03;;
11817;SDS011;5966;52.402;5.322;2022-09-19T02:46:22;7.47;;;1.80;;
11817;SDS011;5966;52.402;5.322;2022-09-19T02:49:02;7.13;;;1.67;;
11817;SDS011;5966;52.402;5.322;2022-09-19T02:51:35;8.93;;;1.73;;
11817;SDS011;5966;52.402;5.322;2022-09-19T02:54:06;4.37;;;1.47;;
11817;SDS011;5966;52.402;5.322;2022-09-19T02:56:38;5.20;;;1.60;;
11817;SDS011;5966;52.402;5.322;2022-09-19T02:59:08;8.97;;;1.83;;
11817;SDS011;5966;52.402;5.322;2022-09-19T03:01:41;7.10;;;1.43;;
11817;SDS011;5966;52.402;5.322;2022-09-19T03:04:16;5.43;;;1.53;;
11817;SDS011;5966;52.402;5.322;2022-09-19T03:06:49;8.53;;;2.10;;
11817;SDS011;5966;52.402;5.322;2022-09-19T03:09:24;7.73;;;1.90;;
11817;SDS011;5966;52.402;5.322;2022-09-19T03:11:56;5.77;;;2.00;;
11817;SDS011;5966;52.402;5.322;2022-09-19T03:14:29;6.30;;;1.60;;
11817;SDS011;5966;52.402;5.322;2022-09-19T03:16:59;5.50;;;1.70;;
11817;SDS011;5966;52.402;5.322;2022-09-19T03:19:29;4.57;;;1.30;;
11817;SDS011;5966;52.402;5.322;2022-09-19T03:21:59;4.70;;;1.30;;
11817;SDS011;5966;52.402;5.322;2022-09-19T03:24:28;7.33;;;1.50;;
11817;SDS011;5966;52.402;5.322;2022-09-19T03:26:56;3.33;;;1.10;;
11817;SDS011;5966;52.402;5.322;2022-09-19T03:29:24;3.93;;;0.90;;
11817;SDS011;5966;52.402;5.322;2022-09-19T03:31:52;4.47;;;1.03;;
11817;SDS011;5966;52.402;5.322;2022-09-19T03:34:24;3.33;;;0.90;;
11817;SDS011;5966;52.402;5.322;2022-09-19T03:37:08;3.27;;;0.93;;
11817;SDS011;5966;52.402;5.322;2022-09-19T03:39:36;5.17;;;1.43;;
11817;SDS011;5966;52.402;5.322;2022-09-19T03:42:10;6.80;;;1.37;;
11817;SDS011;5966;52.402;5.322;2022-09-19T03:44:40;8.70;;;1.33;;
11817;SDS011;5966;52.402;5.322;2022-09-19T03:47:10;3.50;;;1.37;;
11817;SDS011;5966;52.402;5.322;2022-09-19T03:49:39;5.70;;;1.17;;
11817;SDS011;5966;52.402;5.322;2022-09-19T03:52:07;4.17;;;1.20;;
11817;SDS011;5966;52.402;5.322;2022-09-19T03:54:35;5.27;;;1.37;;
11817;SDS011;5966;52.402;5.322;2022-09-19T03:57:04;5.40;;;1.43;;
11817;SDS011;5966;52.402;5.322;2022-09-19T03:59:32;7.63;;;1.30;;
11817;SDS011;5966;52.402;5.322;2022-09-19T04:02:01;6.00;;;1.63;;
11817;SDS011;5966;52.402;5.322;2022-09-19T04:04:29;5.90;;;1.30;;
11817;SDS011;5966;52.402;5.322;2022-09-19T04:06:58;6.50;;;1.60;;
11817;SDS011;5966;52.402;5.322;2022-09-19T04:09:27;3.90;;;1.30;;
11817;SDS011;5966;52.402;5.322;2022-09-19T04:11:57;5.30;;;1.50;;
11817;SDS011;5966;52.402;5.322;2022-09-19T04:14:31;4.17;;;1.20;;
11817;SDS011;5966;52.402;5.322;2022-09-19T04:17:00;7.67;;;1.63;;
11817;SDS011;5966;52.402;5.322;2022-09-19T04:19:47;6.40;;;1.60;;
11817;SDS011;5966;52.402;5.322;2022-09-19T04:22:20;4.60;;;1.43;;
11817;SDS011;5966;52.402;5.322;2022-09-19T04:24:48;6.47;;;1.70;;
11817;SDS011;5966;52.402;5.322;2022-09-19T04:27:17;9.67;;;2.17;;
11817;SDS011;5966;52.402;5.322;2022-09-19T04:29:46;4.50;;;1.10;;
11817;SDS011;5966;52.402;5.322;2022-09-19T04:32:21;6.00;;;1.53;;
11817;SDS011;5966;52.402;5.322;2022-09-19T04:34:49;6.87;;;1.83;;
11817;SDS011;5966;52.402;5.322;2022-09-19T04:37:22;6.13;;;1.77;;
11817;SDS011;5966;52.402;5.322;2022-09-19T04:39:51;7.07;;;1.87;;
11817;SDS011;5966;52.402;5.322;2022-09-19T04:42:22;5.30;;;1.70;;
11817;SDS011;5966;52.402;5.322;2022-09-19T04:44:50;8.17;;;1.70;;
11817;SDS011;5966;52.402;5.322;2022-09-19T04:47:20;9.07;;;1.80;;
11817;SDS011;5966;52.402;5.322;2022-09-19T04:49:48;8.43;;;1.77;;
11817;SDS011;5966;52.402;5.322;2022-09-19T04:52:26;10.43;;;1.77;;
11817;SDS011;5966;52.402;5.322;2022-09-19T04:54:54;5.80;;;1.57;;
11817;SDS011;5966;52.402;5.322;2022-09-19T04:57:22;7.10;;;2.17;;
11817;SDS011;5966;52.402;5.322;2022-09-19T04:59:53;6.33;;;1.90;;
11817;SDS011;5966;52.402;5.322;2022-09-19T05:02:22;5.73;;;1.67;;
11817;SDS011;5966;52.402;5.322;2022-09-19T05:04:50;6.00;;;1.70;;
11817;SDS011;5966;52.402;5.322;2022-09-19T05:07:18;4.77;;;1.30;;
11817;SDS011;5966;52.402;5.322;2022-09-19T05:09:48;5.70;;;1.53;;
11817;SDS011;5966;52.402;5.322;2022-09-19T05:12:16;5.07;;;1.97;;
11817;SDS011;5966;52.402;5.322;2022-09-19T05:14:45;7.87;;;1.60;;
11817;SDS011;5966;52.402;5.322;2022-09-19T05:17:14;4.50;;;1.50;;
11817;SDS011;5966;52.402;5.322;2022-09-19T05:19:41;6.00;;;1.40;;
11817;SDS011;5966;52.402;5.322;2022-09-19T05:22:10;6.40;;;1.80;;
11817;SDS011;5966;52.402;5.322;2022-09-19T05:24:38;7.17;;;1.87;;
11817;SDS011;5966;52.402;5.322;2022-09-19T05:27:11;4.80;;;1.30;;
11817;SDS011;5966;52.402;5.322;2022-09-19T05:29:38;4.60;;;1.67;;
11817;SDS011;5966;52.402;5.322;2022-09-19T05:32:07;5.23;;;1.70;;
11817;SDS011;5966;52.402;5.322;2022-09-19T05:34:35;4.67;;;1.20;;
11817;SDS011;5966;52.402;5.322;2022-09-19T05:37:03;5.30;;;1.43;;
11817;SDS011;5966;52.402;5.322;2022-09-19T05:39:31;8.43;;;2.73;;
11817;SDS011;5966;52.402;5.322;2022-09-19T05:42:02;4.63;;;1.47;;
11817;SDS011;5966;52.402;5.322;2022-09-19T05:44:32;4.27;;;1.53;;
11817;SDS011;5966;52.402;5.322;2022-09-19T05:47:00;7.67;;;1.70;;
11817;SDS011;5966;52.402;5.322;2022-09-19T05:49:28;7.57;;;1.97;;
11817;SDS011;5966;52.402;5.322;2022-09-19T05:51:58;4.97;;;1.70;;
11817;SDS011;5966;52.402;5.322;2022-09-19T05:54:47;5.57;;;1.33;;
11817;SDS011;5966;52.402;5.322;2022-09-19T05:57:17;4.30;;;1.53;;
11817;SDS011;5966;52.402;5.322;2022-09-19T05:59:46;7.90;;;1.77;;
11817;SDS011;5966;52.402;5.322;2022-09-19T06:02:14;6.27;;;2.10;;
11817;SDS011;5966;52.402;5.322;2022-09-19T06:04:43;8.00;;;1.73;;
11817;SDS011;5966;52.402;5.322;2022-09-19T06:07:11;8.87;;;1.80;;
11817;SDS011;5966;52.402;5.322;2022-09-19T06:09:39;6.40;;;1.80;;
11817;SDS011;5966;52.402;5.322;2022-09-19T06:12:08;9.77;;;1.77;;
11817;SDS011;5966;52.402;5.322;2022-09-19T06:14:36;5.27;;;1.63;;
11817;SDS011;5966;52.402;5.322;2022-09-19T06:17:06;4.67;;;1.10;;
11817;SDS011;5966;52.402;5.322;2022-09-19T06:19:34;7.27;;;1.67;;
11817;SDS011;5966;52.402;5.322;2022-09-19T06:22:03;6.33;;;1.60;;
11817;SDS011;5966;52.402;5.322;2022-09-19T06:24:31;9.23;;;1.73;;
11817;SDS011;5966;52.402;5.322;2022-09-19T06:26:59;9.60;;;1.70;;
11817;SDS011;5966;52.402;5.322;2022-09-19T06:29:27;8.33;;;1.70;;
11817;SDS011;5966;52.402;5.322;2022-09-19T06:31:55;7.70;;;1.80;;
11817;SDS011;5966;52.402;5.322;2022-09-19T06:34:25;4.57;;;1.30;;
11817;SDS011;5966;52.402;5.322;2022-09-19T06:37:17;6.27;;;1.80;;
11817;SDS011;5966;52.402;5.322;2022-09-19T06:39:57;3.70;;;1.30;;
11817;SDS011;5966;52.402;5.322;2022-09-19T06:42:25;7.10;;;1.63;;
11817;SDS011;5966;52.402;5.322;2022-09-19T06:44:54;4.73;;;1.53;;
11817;SDS011;5966;52.402;5.322;2022-09-19T06:47:22;8.23;;;1.80;;
11817;SDS011;5966;52.402;5.322;2022-09-19T06:49:51;4.30;;;1.70;;
11817;SDS011;5966;52.402;5.322;2022-09-19T06:52:20;3.63;;;1.53;;
11817;SDS011;5966;52.402;5.322;2022-09-19T06:54:48;6.07;;;1.37;;
11817;SDS011;5966;52.402;5.322;2022-09-19T06:57:16;5.53;;;1.67;;
11817;SDS011;5966;52.402;5.322;2022-09-19T06:59:44;5.30;;;1.30;;
11817;SDS011;5966;52.402;5.322;2022-09-19T07:02:12;6.90;;;1.47;;
11817;SDS011;5966;52.402;5.322;2022-09-19T07:04:40;6.33;;;1.80;;
11817;SDS011;5966;52.402;5.322;2022-09-19T07:07:19;6.97;;;1.40;;
11817;SDS011;5966;52.402;5.322;2022-09-19T07:10:00;8.13;;;1.93;;
11817;SDS011;5966;52.402;5.322;2022-09-19T07:12:28;4.97;;;1.40;;
11817;SDS011;5966;52.402;5.322;2022-09-19T07:15:02;5.13;;;1.30;;
11817;SDS011;5966;52.402;5.322;2022-09-19T07:17:33;3.57;;;1.60;;
11817;SDS011;5966;52.402;5.322;2022-09-19T07:20:04;7.17;;;2.00;;
11817;SDS011;5966;52.402;5.322;2022-09-19T07:25:39;3.80;;;1.23;;
11817;SDS011;5966;52.402;5.322;2022-09-19T07:28:11;5.43;;;1.60;;
11817;SDS011;5966;52.402;5.322;2022-09-19T07:31:15;9.00;;;1.80;;
11817;SDS011;5966;52.402;5.322;2022-09-19T07:33:43;6.40;;;1.87;;
11817;SDS011;5966;52.402;5.322;2022-09-19T07:36:26;4.73;;;1.53;;
11817;SDS011;5966;52.402;5.322;2022-09-19T07:39:04;6.83;;;1.50;;
11817;SDS011;5966;52.402;5.322;2022-09-19T07:41:34;7.40;;;1.70;;
11817;SDS011;5966;52.402;5.322;2022-09-19T07:44:06;6.83;;;1.97;;
11817;SDS011;5966;52.402;5.322;2022-09-19T07:46:33;9.20;;;1.70;;
11817;SDS011;5966;52.402;5.322;2022-09-19T07:49:05;5.73;;;1.40;;
11817;SDS011;5966;52.402;5.322;2022-09-19T07:51:39;4.77;;;1.20;;
11817;SDS011;5966;52.402;5.322;2022-09-19T07:57:22;6.30;;;1.30;;
11817;SDS011;5966;52.402;5.322;2022-09-19T08:00:03;3.73;;;0.80;;
11817;SDS011;5966;52.402;5.322;2022-09-19T08:03:03;5.40;;;1.10;;
11817;SDS011;5966;52.402;5.322;2022-09-19T08:05:42;3.87;;;1.00;;
11817;SDS011;5966;52.402;5.322;2022-09-19T08:08:28;5.40;;;1.10;;
11817;SDS011;5966;52.402;5.322;2022-09-19T08:11:01;5.43;;;1.13;;
11817;SDS011;5966;52.402;5.322;2022-09-19T08:13:52;4.93;;;1.20;;
11817;SDS011;5966;52.402;5.322;2022-09-19T08:16:36;3.87;;;1.30;;
11817;SDS011;5966;52.402;5.322;2022-09-19T08:19:04;5.07;;;1.77;;
11817;SDS011;5966;52.402;5.322;2022-09-19T08:21:47;6.67;;;1.40;;
11817;SDS011;5966;52.402;5.322;2022-09-19T08:24:26;4.87;;;1.63;;
11817;SDS011;5966;52.402;5.322;2022-09-19T08:27:01;6.03;;;1.30;;
11817;SDS011;5966;52.402;5.322;2022-09-19T08:29:56;2.73;;;0.87;;
11817;SDS011;5966;52.402;5.322;2022-09-19T08:35:58;1.93;;;0.70;;
11817;SDS011;5966;52.402;5.322;2022-09-19T08:38:36;2.07;;;0.90;;
11817;SDS011;5966;52.402;5.322;2022-09-19T08:41:36;1.47;;;0.80;;
11817;SDS011;5966;52.402;5.322;2022-09-19T08:44:17;4.43;;;1.27;;
11817;SDS011;5966;52.402;5.322;2022-09-19T08:46:56;2.70;;;0.80;;
11817;SDS011;5966;52.402;5.322;2022-09-19T08:49:42;1.47;;;0.70;;
11817;SDS011;5966;52.402;5.322;2022-09-19T08:52:21;6.37;;;1.33;;
11817;SDS011;5966;52.402;5.322;2022-09-19T08:55:02;5.13;;;1.73;;
11817;SDS011;5966;52.402;5.322;2022-09-19T08:57:56;3.17;;;1.17;;
11817;SDS011;5966;52.402;5.322;2022-09-19T09:00:41;4.50;;;1.00;;
11817;SDS011;5966;52.402;5.322;2022-09-19T09:03:12;6.60;;;1.73;;
11817;SDS011;5966;52.402;5.322;2022-09-19T09:05:50;7.47;;;1.37;;
11817;SDS011;5966;52.402;5.322;2022-09-19T09:08:50;4.10;;;0.63;;
11817;SDS011;5966;52.402;5.322;2022-09-19T09:11:37;2.77;;;0.93;;
11817;SDS011;5966;52.402;5.322;2022-09-19T09:14:19;3.97;;;1.00;;
11817;SDS011;5966;52.402;5.322;2022-09-19T09:16:58;4.13;;;1.10;;
11817;SDS011;5966;52.402;5.322;2022-09-19T09:19:39;1.57;;;0.83;;
11817;SDS011;5966;52.402;5.322;2022-09-19T09:22:23;2.63;;;1.10;;
11817;SDS011;5966;52.402;5.322;2022-09-19T09:25:00;4.57;;;1.30;;
11817;SDS011;5966;52.402;5.322;2022-09-19T09:30:43;6.70;;;1.27;;
11817;SDS011;5966;52.402;5.322;2022-09-19T09:33:22;3.73;;;1.10;;
11817;SDS011;5966;52.402;5.322;2022-09-19T09:35:59;2.87;;;1.10;;
11817;SDS011;5966;52.402;5.322;2022-09-19T09:38:33;2.73;;;0.83;;
11817;SDS011;5966;52.402;5.322;2022-09-19T09:41:05;2.47;;;0.80;;
11817;SDS011;5966;52.402;5.322;2022-09-19T09:44:00;2.00;;;0.70;;
11817;SDS011;5966;52.402;5.322;2022-09-19T09:47:00;4.23;;;0.80;;
11817;SDS011;5966;52.402;5.322;2022-09-19T09:49:48;1.13;;;0.50;;
11817;SDS011;5966;52.402;5.322;2022-09-19T09:52:36;1.93;;;0.70;;
11817;SDS011;5966;52.402;5.322;2022-09-19T09:55:14;2.97;;;0.90;;
11817;SDS011;5966;52.402;5.322;2022-09-19T09:58:16;2.07;;;1.00;;
11817;SDS011;5966;52.402;5.322;2022-09-19T10:00:52;4.37;;;0.77;;
11817;SDS011;5966;52.402;5.322;2022-09-19T10:03:48;2.53;;;0.90;;
11817;SDS011;5966;52.402;5.322;2022-09-19T10:06:25;3.90;;;1.10;;
11817;SDS011;5966;52.402;5.322;2022-09-19T10:09:04;4.97;;;1.60;;
11817;SDS011;5966;52.402;5.322;2022-09-19T10:11:41;3.73;;;1.33;;
11817;SDS011;5966;52.402;5.322;2022-09-19T10:14:38;4.43;;;1.00;;
11817;SDS011;5966;52.402;5.322;2022-09-19T10:17:07;3.60;;;1.23;;
11817;SDS011;5966;52.402;5.322;2022-09-19T10:19:45;2.77;;;1.00;;
11817;SDS011;5966;52.402;5.322;2022-09-19T10:22:16;3.37;;;1.23;;
11817;SDS011;5966;52.402;5.322;2022-09-19T10:24:47;5.27;;;1.70;;
11817;SDS011;5966;52.402;5.322;2022-09-19T10:27:25;4.77;;;1.30;;
11817;SDS011;5966;52.402;5.322;2022-09-19T10:30:11;4.00;;;1.20;;
11817;SDS011;5966;52.402;5.322;2022-09-19T10:32:43;5.00;;;1.10;;
11817;SDS011;5966;52.402;5.322;2022-09-19T10:35:23;5.00;;;1.10;;
11817;SDS011;5966;52.402;5.322;2022-09-19T10:38:00;4.53;;;1.07;;
11817;SDS011;5966;52.402;5.322;2022-09-19T10:40:36;3.03;;;0.97;;
11817;SDS011;5966;52.402;5.322;2022-09-19T10:43:09;4.27;;;1.27;;
11817;SDS011;5966;52.402;5.322;2022-09-19T10:45:53;4.13;;;1.00;;
11817;SDS011;5966;52.402;5.322;2022-09-19T10:48:24;2.77;;;0.90;;
11817;SDS011;5966;52.402;5.322;2022-09-19T10:50:56;6.47;;;1.00;;
11817;SDS011;5966;52.402;5.322;2022-09-19T10:53:29;2.83;;;1.33;;
11817;SDS011;5966;52.402;5.322;2022-09-19T10:55:59;3.17;;;0.73;;
11817;SDS011;5966;52.402;5.322;2022-09-19T10:58:43;2.50;;;0.90;;
11817;SDS011;5966;52.402;5.322;2022-09-19T11:01:19;2.87;;;0.73;;
11817;SDS011;5966;52.402;5.322;2022-09-19T11:04:00;3.87;;;0.97;;
11817;SDS011;5966;52.402;5.322;2022-09-19T11:06:30;4.03;;;1.43;;
11817;SDS011;5966;52.402;5.322;2022-09-19T11:09:00;1.10;;;0.50;;
11817;SDS011;5966;52.402;5.322;2022-09-19T11:11:34;4.17;;;0.97;;
11817;SDS011;5966;52.402;5.322;2022-09-19T11:14:10;2.67;;;0.63;;
11817;SDS011;5966;52.402;5.322;2022-09-19T11:20:26;2.67;;;0.93;;
11817;SDS011;5966;52.402;5.322;2022-09-19T11:26:38;2.37;;;0.90;;
11817;SDS011;5966;52.402;5.322;2022-09-19T11:29:39;3.97;;;1.00;;
11817;SDS011;5966;52.402;5.322;2022-09-19T11:32:27;4.57;;;0.90;;
11817;SDS011;5966;52.402;5.322;2022-09-19T11:35:24;4.27;;;1.27;;
11817;SDS011;5966;52.402;5.322;2022-09-19T11:38:00;3.33;;;0.87;;
11817;SDS011;5966;52.402;5.322;2022-09-19T11:41:28;4.47;;;1.10;;
11817;SDS011;5966;52.402;5.322;2022-09-19T11:44:18;2.83;;;1.00;;
11817;SDS011;5966;52.402;5.322;2022-09-19T11:47:24;3.33;;;1.53;;
11817;SDS011;5966;52.402;5.322;2022-09-19T11:53:09;2.57;;;0.83;;
11817;SDS011;5966;52.402;5.322;2022-09-19T11:56:04;3.17;;;0.80;;
11817;SDS011;5966;52.402;5.322;2022-09-19T11:59:03;4.80;;;1.00;;
11817;SDS011;5966;52.402;5.322;2022-09-19T12:01:44;2.87;;;0.87;;
11817;SDS011;5966;52.402;5.322;2022-09-19T12:04:25;3.93;;;1.00;;
11817;SDS011;5966;52.402;5.322;2022-09-19T12:07:13;2.20;;;0.80;;
11817;SDS011;5966;52.402;5.322;2022-09-19T12:09:55;4.87;;;1.03;;
11817;SDS011;5966;52.402;5.322;2022-09-19T12:12:54;1.60;;;0.70;;
11817;SDS011;5966;52.402;5.322;2022-09-19T12:15:32;3.50;;;1.20;;
11817;SDS011;5966;52.402;5.322;2022-09-19T12:18:05;5.23;;;1.03;;
11817;SDS011;5966;52.402;5.322;2022-09-19T12:20:57;3.23;;;0.87;;
11817;SDS011;5966;52.402;5.322;2022-09-19T12:23:35;2.53;;;0.93;;
11817;SDS011;5966;52.402;5.322;2022-09-19T12:26:32;3.73;;;1.10;;
11817;SDS011;5966;52.402;5.322;2022-09-19T12:29:11;2.83;;;0.97;;
11817;SDS011;5966;52.402;5.322;2022-09-19T12:34:42;3.70;;;0.63;;
11817;SDS011;5966;52.402;5.322;2022-09-19T12:37:34;4.50;;;1.07;;
11817;SDS011;5966;52.402;5.322;2022-09-19T12:40:17;3.77;;;0.73;;
11817;SDS011;5966;52.402;5.322;2022-09-19T12:42:57;4.63;;;1.00;;
11817;SDS011;5966;52.402;5.322;2022-09-19T12:45:51;3.07;;;0.90;;
11817;SDS011;5966;52.402;5.322;2022-09-19T12:48:50;2.83;;;0.90;;
11817;SDS011;5966;52.402;5.322;2022-09-19T12:51:42;3.50;;;1.10;;
11817;SDS011;5966;52.402;5.322;2022-09-19T12:54:30;2.30;;;0.60;;
11817;SDS011;5966;52.402;5.322;2022-09-19T12:57:14;3.00;;;1.03;;
11817;SDS011;5966;52.402;5.322;2022-09-19T13:00:22;2.67;;;1.33;;
11817;SDS011;5966;52.402;5.322;2022-09-19T13:03:06;2.70;;;0.70;;
11817;SDS011;5966;52.402;5.322;2022-09-19T13:05:59;4.53;;;1.17;;
11817;SDS011;5966;52.402;5.322;2022-09-19T13:08:32;3.90;;;1.00;;
11817;SDS011;5966;52.402;5.322;2022-09-19T13:11:28;2.63;;;0.90;;
11817;SDS011;5966;52.402;5.322;2022-09-19T13:14:03;4.60;;;1.20;;
11817;SDS011;5966;52.402;5.322;2022-09-19T13:16:40;6.80;;;1.23;;
11817;SDS011;5966;52.402;5.322;2022-09-19T13:19:33;7.47;;;1.20;;
11817;SDS011;5966;52.402;5.322;2022-09-19T13:22:31;5.70;;;1.07;;
11817;SDS011;5966;52.402;5.322;2022-09-19T13:25:33;3.37;;;1.13;;
11817;SDS011;5966;52.402;5.322;2022-09-19T13:28:29;3.53;;;1.10;;
11817;SDS011;5966;52.402;5.322;2022-09-19T13:31:13;2.97;;;0.97;;
11817;SDS011;5966;52.402;5.322;2022-09-19T13:33:45;3.37;;;0.90;;
11817;SDS011;5966;52.402;5.322;2022-09-19T13:36:17;2.83;;;0.77;;
11817;SDS011;5966;52.402;5.322;2022-09-19T13:42:12;1.90;;;0.70;;
11817;SDS011;5966;52.402;5.322;2022-09-19T13:44:54;7.80;;;1.90;;
11817;SDS011;5966;52.402;5.322;2022-09-19T13:47:28;3.93;;;1.50;;
11817;SDS011;5966;52.402;5.322;2022-09-19T13:50:02;3.97;;;1.00;;
11817;SDS011;5966;52.402;5.322;2022-09-19T13:52:40;3.63;;;0.90;;
11817;SDS011;5966;52.402;5.322;2022-09-19T13:55:17;4.60;;;1.27;;
11817;SDS011;5966;52.402;5.322;2022-09-19T14:01:04;3.67;;;0.87;;
11817;SDS011;5966;52.402;5.322;2022-09-19T14:03:51;5.17;;;1.37;;
11817;SDS011;5966;52.402;5.322;2022-09-19T14:06:43;4.93;;;1.37;;
11817;SDS011;5966;52.402;5.322;2022-09-19T14:09:38;1.97;;;1.10;;
11817;SDS011;5966;52.402;5.322;2022-09-19T14:12:50;2.67;;;1.17;;
11817;SDS011;5966;52.402;5.322;2022-09-19T14:18:42;4.67;;;0.93;;
11817;SDS011;5966;52.402;5.322;2022-09-19T14:30:40;5.53;;;1.20;;
11817;SDS011;5966;52.402;5.322;2022-09-19T14:36:46;3.47;;;1.13;;
11817;SDS011;5966;52.402;5.322;2022-09-19T14:39:48;8.70;;;1.37;;
11817;SDS011;5966;52.402;5.322;2022-09-19T14:45:23;5.27;;;1.60;;
11817;SDS011;5966;52.402;5.322;2022-09-19T14:48:08;4.93;;;1.40;;
11817;SDS011;5966;52.402;5.322;2022-09-19T14:50:54;7.10;;;2.13;;
11817;SDS011;5966;52.402;5.322;2022-09-19T14:53:33;7.13;;;1.60;;
11817;SDS011;5966;52.402;5.322;2022-09-19T14:56:22;3.93;;;1.63;;
11817;SDS011;5966;52.402;5.322;2022-09-19T14:59:16;4.73;;;1.60;;
11817;SDS011;5966;52.402;5.322;2022-09-19T15:01:48;4.97;;;1.73;;
11817;SDS011;5966;52.402;5.322;2022-09-19T15:04:27;7.20;;;1.40;;
11817;SDS011;5966;52.402;5.322;2022-09-19T15:07:01;7.13;;;1.53;;
11817;SDS011;5966;52.402;5.322;2022-09-19T15:09:39;7.60;;;1.60;;
11817;SDS011;5966;52.402;5.322;2022-09-19T15:12:14;7.03;;;1.50;;
11817;SDS011;5966;52.402;5.322;2022-09-19T15:14:46;7.70;;;1.67;;
11817;SDS011;5966;52.402;5.322;2022-09-19T15:17:24;6.23;;;1.50;;
11817;SDS011;5966;52.402;5.322;2022-09-19T15:19:55;5.80;;;1.47;;
11817;SDS011;5966;52.402;5.322;2022-09-19T15:22:33;6.47;;;1.50;;
11817;SDS011;5966;52.402;5.322;2022-09-19T15:25:05;8.53;;;1.80;;
11817;SDS011;5966;52.402;5.322;2022-09-19T15:27:45;4.17;;;1.33;;
11817;SDS011;5966;52.402;5.322;2022-09-19T15:30:30;7.53;;;1.50;;
11817;SDS011;5966;52.402;5.322;2022-09-19T15:32:59;6.33;;;1.33;;
11817;SDS011;5966;52.402;5.322;2022-09-19T15:35:34;6.97;;;1.57;;
11817;SDS011;5966;52.402;5.322;2022-09-19T15:38:10;6.33;;;1.50;;
11817;SDS011;5966;52.402;5.322;2022-09-19T15:40:47;4.37;;;1.43;;
11817;SDS011;5966;52.402;5.322;2022-09-19T15:43:18;6.87;;;1.47;;
11817;SDS011;5966;52.402;5.322;2022-09-19T15:45:57;6.43;;;1.10;;
11817;SDS011;5966;52.402;5.322;2022-09-19T15:48:32;6.80;;;1.47;;
11817;SDS011;5966;52.402;5.322;2022-09-19T15:51:23;3.93;;;1.20;;
11817;SDS011;5966;52.402;5.322;2022-09-19T15:54:26;5.20;;;1.37;;
11817;SDS011;5966;52.402;5.322;2022-09-19T15:57:29;4.93;;;1.40;;
11817;SDS011;5966;52.402;5.322;2022-09-19T16:00:00;5.53;;;1.30;;
11817;SDS011;5966;52.402;5.322;2022-09-19T16:02:36;5.17;;;1.43;;
11817;SDS011;5966;52.402;5.322;2022-09-19T16:05:13;5.13;;;1.50;;
11817;SDS011;5966;52.402;5.322;2022-09-19T16:07:48;5.00;;;1.70;;
11817;SDS011;5966;52.402;5.322;2022-09-19T16:10:37;4.33;;;1.30;;
11817;SDS011;5966;52.402;5.322;2022-09-19T16:16:33;3.87;;;1.43;;
11817;SDS011;5966;52.402;5.322;2022-09-19T16:19:19;5.27;;;1.27;;
11817;SDS011;5966;52.402;5.322;2022-09-19T16:21:57;4.97;;;1.20;;
11817;SDS011;5966;52.402;5.322;2022-09-19T16:24:45;6.67;;;1.50;;
11817;SDS011;5966;52.402;5.322;2022-09-19T16:27:25;4.13;;;1.07;;
11817;SDS011;5966;52.402;5.322;2022-09-19T16:30:24;4.30;;;1.30;;
11817;SDS011;5966;52.402;5.322;2022-09-19T16:32:53;3.93;;;1.57;;
11817;SDS011;5966;52.402;5.322;2022-09-19T16:35:22;4.20;;;1.23;;
11817;SDS011;5966;52.402;5.322;2022-09-19T16:37:56;4.67;;;1.30;;
11817;SDS011;5966;52.402;5.322;2022-09-19T16:40:39;4.20;;;1.50;;
11817;SDS011;5966;52.402;5.322;2022-09-19T16:43:36;3.93;;;1.10;;
11817;SDS011;5966;52.402;5.322;2022-09-19T16:46:11;4.97;;;1.30;;
11817;SDS011;5966;52.402;5.322;2022-09-19T16:48:43;2.93;;;0.97;;
11817;SDS011;5966;52.402;5.322;2022-09-19T16:51:48;4.80;;;1.07;;
11817;SDS011;5966;52.402;5.322;2022-09-19T16:54:24;5.10;;;1.20;;
11817;SDS011;5966;52.402;5.322;2022-09-19T16:56:55;3.50;;;1.27;;
11817;SDS011;5966;52.402;5.322;2022-09-19T16:59:24;5.10;;;1.10;;
11817;SDS011;5966;52.402;5.322;2022-09-19T17:02:14;2.60;;;0.90;;